Time;durP1;ratioP1;P1;durP2;ratioP2;P2;SDS_P1;SDS_P2;PMS_P1;PMS_P2;Temp;Humidity;BMP_temperature;BMP_pressure;BME280_temperature;BME280_humidity;BME280_pressure;Samples;Min_cycle;Max_cycle;Signal;HPM_P1;HPM_P2
2022/09/18 00:01:34;;;;;;;1.65;1.40;;;;;;;10.23;76.08;96629.34;6158254;23;20073;-77
2022/09/18 00:04:05;;;;;;;1.50;1.40;;;;;;;10.23;76.33;96625.88;6159538;23;20021;-77
2022/09/18 00:06:39;;;;;;;3.13;1.50;;;;;;;10.27;76.01;96625.34;6160661;23;20092;-81
2022/09/18 00:09:11;;;;;;;3.78;1.70;;;;;;;10.30;76.28;96629.44;6159680;23;20135;-79
2022/09/18 00:11:44;;;;;;;5.15;1.80;;;;;;;10.33;76.19;96623.88;6157958;23;20096;-78
2022/09/18 00:14:14;;;;;;;3.08;2.00;;;;;;;10.36;76.71;96627.91;6159185;23;20028;-78
2022/09/18 00:16:42;;;;;;;3.67;1.60;;;;;;;10.39;76.54;96628.38;6158210;23;20017;-80
2022/09/18 00:19:11;;;;;;;3.50;1.38;;;;;;;10.42;76.53;96632.41;6157267;23;20021;-78
2022/09/18 00:21:41;;;;;;;3.13;1.40;;;;;;;10.44;76.93;96631.25;6157775;23;20549;-78
2022/09/18 00:24:09;;;;;;;1.83;1.52;;;;;;;10.45;76.30;96632.88;6159195;23;20021;-78
2022/09/18 00:26:37;;;;;;;3.70;1.38;;;;;;;10.46;76.02;96628.47;6159678;23;20022;-78
2022/09/18 00:29:05;;;;;;;3.65;1.50;;;;;;;10.47;76.41;96633.50;6158983;23;20021;-78
2022/09/18 00:31:35;;;;;;;3.60;1.60;;;;;;;10.48;76.09;96640.31;6157388;23;20357;-78
2022/09/18 00:34:06;;;;;;;1.83;1.63;;;;;;;10.50;76.05;96629.72;6158131;23;20025;-78
2022/09/18 00:36:36;;;;;;;4.32;1.63;;;;;;;10.50;75.67;96630.53;6157281;23;20025;-78
2022/09/18 00:39:04;;;;;;;3.65;1.40;;;;;;;10.49;75.69;96626.31;6157057;23;20462;-78
2022/09/18 00:41:33;;;;;;;4.18;2.15;;;;;;;10.49;75.66;96633.31;6156376;23;20026;-78
2022/09/18 00:44:31;;;;;;;3.47;1.80;;;;;;;10.49;75.42;96635.91;6156972;23;20014;-78
2022/09/18 00:47:04;;;;;;;9.65;1.85;;;;;;;10.48;76.05;96631.69;6157630;23;20025;-78
2022/09/18 00:49:32;;;;;;;3.88;1.85;;;;;;;10.49;75.94;96636.75;6156174;23;20032;-78
2022/09/18 00:52:02;;;;;;;4.53;1.75;;;;;;;10.50;75.71;96632.31;6156526;23;20017;-80
2022/09/18 00:54:33;;;;;;;6.35;1.70;;;;;;;10.51;75.73;96636.53;6159230;23;20022;-78
2022/09/18 00:57:04;;;;;;;3.13;1.63;;;;;;;10.51;75.67;96641.75;6158426;23;20022;-78
2022/09/18 00:59:34;;;;;;;2.38;1.58;;;;;;;10.49;75.78;96641.97;6158488;23;20027;-78
2022/09/18 01:02:02;;;;;;;3.47;1.52;;;;;;;10.48;75.71;96639.53;6157689;23;20022;-77
2022/09/18 01:04:30;;;;;;;4.68;1.60;;;;;;;10.46;75.44;96637.09;6159480;23;20521;-78
2022/09/18 01:07:09;;;;;;;3.55;2.17;;;;;;;10.48;75.75;96650.75;6162199;23;20021;-77
2022/09/18 01:09:47;;;;;;;7.25;1.55;;;;;;;10.50;75.72;96645.38;6158883;23;20045;-76
2022/09/18 01:12:22;;;;;;;6.70;1.98;;;;;;;10.51;75.95;96646.97;6158816;23;20092;-76
2022/09/18 01:14:58;;;;;;;3.33;1.50;;;;;;;10.50;75.46;96645.38;6160168;23;20031;-76
2022/09/18 01:17:32;;;;;;;6.05;1.77;;;;;;;10.50;75.29;96640.16;6160142;23;20073;-78
2022/09/18 01:20:20;;;;;;;5.65;1.60;;;;;;;10.51;75.73;96641.75;6158827;23;20021;-78
2022/09/18 01:23:10;;;;;;;2.38;1.25;;;;;;;10.51;75.46;96652.19;6159853;23;20059;-83
2022/09/18 01:25:50;;;;;;;4.63;1.70;;;;;;;10.50;75.74;96645.38;6162686;23;20096;-78
2022/09/18 01:28:24;;;;;;;6.35;2.22;;;;;;;10.49;76.03;96636.75;6162924;23;20021;-79
2022/09/18 01:30:56;;;;;;;3.28;1.58;;;;;;;10.48;75.64;96637.72;6159152;23;20477;-78
2022/09/18 01:33:30;;;;;;;3.08;1.13;;;;;;;10.49;75.84;96633.31;6159337;23;20025;-77
2022/09/18 01:36:02;;;;;;;6.05;1.60;;;;;;;10.48;75.69;96637.72;6159238;23;20025;-77
2022/09/18 01:38:34;;;;;;;2.38;1.20;;;;;;;10.48;75.96;96647.34;6159053;23;20021;-76
2022/09/18 01:41:07;;;;;;;6.35;1.23;;;;;;;10.47;75.90;96635.28;6159485;23;20108;-81
2022/09/18 01:43:39;;;;;;;2.22;1.48;;;;;;;10.46;75.45;96638.91;6158504;23;20101;-77
2022/09/18 01:46:10;;;;;;;3.13;1.13;;;;;;;10.42;75.29;96635.81;6158715;23;20018;-76
2022/09/18 01:48:43;;;;;;;2.97;1.20;;;;;;;10.40;75.42;96637.00;6158481;23;20334;-77
2022/09/18 01:51:17;;;;;;;2.83;1.08;;;;;;;10.40;75.62;96639.59;6158086;23;20228;-77
2022/09/18 01:53:48;;;;;;;3.33;1.23;;;;;;;10.40;75.78;96635.19;6158388;23;20048;-78
2022/09/18 01:56:19;;;;;;;4.55;1.52;;;;;;;10.40;75.22;96634.38;6158567;23;20027;-78
2022/09/18 01:58:51;;;;;;;3.13;1.20;;;;;;;10.38;75.21;96636.38;6158499;23;20022;-78
2022/09/18 02:01:22;;;;;;;2.88;1.30;;;;;;;10.38;74.92;96631.16;6158207;23;20359;-80
2022/09/18 02:03:56;;;;;;;4.00;1.40;;;;;;;10.39;75.69;96633.59;6157639;23;20528;-78
2022/09/18 02:06:29;;;;;;;2.67;1.13;;;;;;;10.41;75.83;96638.63;6159068;23;20028;-77
2022/09/18 02:08:59;;;;;;;4.13;1.30;;;;;;;10.43;76.55;96632.25;6161108;23;20028;-78
2022/09/18 02:11:27;;;;;;;2.83;1.30;;;;;;;10.46;75.79;96636.28;6159011;23;20021;-78
2022/09/18 02:14:00;;;;;;;4.93;1.30;;;;;;;10.45;75.00;96632.88;6159121;23;20043;-78
2022/09/18 02:16:32;;;;;;;6.38;1.67;;;;;;;10.44;75.66;96631.25;6158683;23;20361;-77
2022/09/18 02:19:05;;;;;;;1.70;1.27;;;;;;;10.45;75.42;96622.44;6159658;23;20018;-78
2022/09/18 02:21:33;;;;;;;1.75;1.20;;;;;;;10.46;75.77;96628.47;6157600;23;20025;-78
2022/09/18 02:24:05;;;;;;;3.45;1.58;;;;;;;10.47;76.01;96622.25;6157947;23;20022;-76
2022/09/18 02:26:34;;;;;;;3.30;1.80;;;;;;;10.46;75.33;96628.47;6158727;23;20045;-78
2022/09/18 02:29:06;;;;;;;2.47;1.58;;;;;;;10.44;75.04;96627.84;6158061;23;20480;-77
2022/09/18 02:31:36;;;;;;;3.97;1.88;;;;;;;10.45;75.40;96626.81;6156421;23;20117;-76
2022/09/18 02:34:07;;;;;;;6.78;1.88;;;;;;;10.46;75.59;96623.25;6159465;23;20022;-77
2022/09/18 02:36:50;;;;;;;2.20;1.00;;;;;;;10.46;75.21;96625.84;6158536;23;20026;-77
2022/09/18 02:39:32;;;;;;;4.38;1.45;;;;;;;10.41;74.71;96621.19;6158270;23;20022;-77
2022/09/18 02:42:08;;;;;;;9.63;1.90;;;;;;;10.41;75.45;96625.59;6157397;23;20101;-76
2022/09/18 02:44:47;;;;;;;3.05;1.35;;;;;;;10.42;76.37;96625.38;6158833;23;20057;-77
2022/09/18 02:47:25;;;;;;;3.85;1.42;;;;;;;10.43;75.01;96619.19;6158982;23;20078;-78
2022/09/18 02:49:59;;;;;;;4.80;1.50;;;;;;;10.40;75.55;96618.75;6158647;23;20104;-77
2022/09/18 02:52:32;;;;;;;2.67;1.23;;;;;;;10.42;76.21;96616.78;6158227;23;20104;-76
2022/09/18 02:55:07;;;;;;;2.28;1.40;;;;;;;10.44;75.41;96625.22;6158721;23;20047;-77
2022/09/18 02:57:38;;;;;;;6.57;1.67;;;;;;;10.43;75.59;96619.19;6158312;23;20484;-78
2022/09/18 03:00:11;;;;;;;5.05;1.33;;;;;;;10.44;75.48;96617.41;6157106;23;20025;-77
2022/09/18 03:02:38;;;;;;;3.67;1.48;;;;;;;10.44;75.51;96622.63;6157108;23;20021;-77
2022/09/18 03:05:07;;;;;;;2.72;1.10;;;;;;;10.44;75.52;96615.59;6158303;23;20093;-78
2022/09/18 03:07:35;;;;;;;4.35;1.30;;;;;;;10.44;74.87;96620.00;6158476;23;20021;-78
2022/09/18 03:10:02;;;;;;;3.70;1.15;;;;;;;10.42;74.74;96612.34;6156980;23;20024;-76
2022/09/18 03:12:30;;;;;;;1.13;1.00;;;;;;;10.42;75.04;96611.56;6159428;23;20369;-77
2022/09/18 03:14:57;;;;;;;2.80;1.40;;;;;;;10.42;75.72;96608.94;6160575;23;20043;-77
2022/09/18 03:17:26;;;;;;;4.70;1.25;;;;;;;10.43;75.31;96615.75;6160703;23;20386;-79
2022/09/18 03:19:53;;;;;;;5.28;1.08;;;;;;;10.42;74.58;96616.78;6159787;23;20101;-78
2022/09/18 03:22:21;;;;;;;3.15;1.10;;;;;;;10.39;74.68;96611.94;6159047;23;20477;-80
2022/09/18 03:24:49;;;;;;;3.50;0.90;;;;;;;10.37;74.05;96613.91;6159753;23;20025;-76
2022/09/18 03:27:17;;;;;;;2.85;1.23;;;;;;;10.37;74.68;96619.13;6159691;23;20033;-79
2022/09/18 03:29:44;;;;;;;1.58;0.90;;;;;;;10.38;74.49;96623.31;6159435;23;20025;-78
2022/09/18 03:32:12;;;;;;;4.53;1.70;;;;;;;10.38;74.14;96610.28;6158517;23;20022;-78
2022/09/18 03:34:41;;;;;;;4.05;1.38;;;;;;;10.37;74.52;96616.50;6159289;23;20496;-77
2022/09/18 03:37:09;;;;;;;4.43;1.50;;;;;;;10.35;74.00;96610.66;6159254;23;20059;-77
2022/09/18 03:39:36;;;;;;;4.30;1.05;;;;;;;10.35;74.62;96618.47;6159810;23;20068;-78
2022/09/18 03:42:04;;;;;;;2.92;1.10;;;;;;;10.35;74.55;96627.09;6158264;23;20028;-78
2022/09/18 03:44:32;;;;;;;1.25;1.10;;;;;;;10.36;74.78;96617.47;6159429;23;20104;-79
2022/09/18 03:46:59;;;;;;;2.70;1.65;;;;;;;10.36;74.44;96615.69;6159828;23;20041;-76
2022/09/18 03:49:27;;;;;;;5.00;1.75;;;;;;;10.36;75.08;96618.28;6159425;23;20021;-77
2022/09/18 03:51:55;;;;;;;1.63;1.17;;;;;;;10.36;74.51;96617.47;6158040;23;20028;-78
2022/09/18 03:54:23;;;;;;;2.00;1.02;;;;;;;10.34;74.38;96620.25;6158653;23;20474;-77
2022/09/18 03:56:50;;;;;;;3.72;1.40;;;;;;;10.35;74.91;96627.09;6159105;23;20081;-76
2022/09/18 03:59:18;;;;;;;3.92;1.50;;;;;;;10.34;74.75;96620.25;6158554;23;20022;-77
2022/09/18 04:01:46;;;;;;;2.80;1.02;;;;;;;10.36;75.22;96615.69;6157585;23;20343;-77
2022/09/18 04:04:13;;;;;;;3.95;1.30;;;;;;;10.38;75.05;96626.75;6158698;23;20025;-76
2022/09/18 04:06:41;;;;;;;4.75;1.58;;;;;;;10.37;74.86;96619.13;6158712;23;20029;-78
2022/09/18 04:09:10;;;;;;;1.52;1.10;;;;;;;10.35;74.74;96621.09;6159086;23;20408;-78
2022/09/18 04:11:37;;;;;;;4.03;1.20;;;;;;;10.36;74.76;96622.69;6157234;23;20025;-77
2022/09/18 04:14:05;;;;;;;2.65;1.60;;;;;;;10.35;74.86;96631.53;6158727;23;20104;-77
2022/09/18 04:16:32;;;;;;;2.95;2.03;;;;;;;10.34;74.74;96619.47;6158947;23;20028;-77
2022/09/18 04:19:00;;;;;;;2.33;1.27;;;;;;;10.33;75.18;96623.06;6159211;23;20025;-77
2022/09/18 04:21:27;;;;;;;2.67;1.08;;;;;;;10.35;75.43;96621.09;6157933;23;20025;-78
2022/09/18 04:23:58;;;;;;;2.13;1.45;;;;;;;10.35;75.14;96632.31;6158800;23;20466;-77
2022/09/18 04:26:27;;;;;;;3.88;1.20;;;;;;;10.35;76.00;96631.53;6160223;23;20105;-76
2022/09/18 04:28:54;;;;;;;3.42;1.52;;;;;;;10.37;75.83;96629.53;6158430;23;20021;-76
2022/09/18 04:31:22;;;;;;;3.70;1.35;;;;;;;10.36;75.54;96625.31;6157594;23;20025;-78
2022/09/18 04:33:49;;;;;;;9.43;2.78;;;;;;;10.36;75.63;96623.50;6159583;23;20025;-78
2022/09/18 04:36:17;;;;;;;2.75;2.00;;;;;;;10.36;75.72;96630.50;6159758;23;20021;-76
2022/09/18 04:38:44;;;;;;;1.83;1.17;;;;;;;10.36;75.50;96627.91;6159537;23;20113;-76
2022/09/18 04:41:12;;;;;;;3.38;2.17;;;;;;;10.37;75.54;96634.75;6154050;23;20029;-79
2022/09/18 04:43:42;;;;;;;2.90;1.35;;;;;;;10.35;75.48;96631.53;6158944;23;20017;-76
2022/09/18 04:46:09;;;;;;;1.88;1.13;;;;;;;10.37;76.09;96634.75;6160049;23;20021;-77
2022/09/18 04:48:37;;;;;;;3.33;1.50;;;;;;;10.37;76.00;96632.94;6159929;23;20478;-77
2022/09/18 04:51:05;;;;;;;3.40;1.52;;;;;;;10.33;75.61;96634.28;6158103;23;20100;-76
2022/09/18 04:53:34;;;;;;;2.75;1.35;;;;;;;10.34;75.80;96630.69;6159328;23;20017;-79
2022/09/18 04:56:02;;;;;;;2.17;1.30;;;;;;;10.35;75.82;96627.09;6159278;23;20028;-76
2022/09/18 04:58:29;;;;;;;2.90;1.45;;;;;;;10.38;76.37;96631.16;6159998;23;20021;-80
2022/09/18 05:00:59;;;;;;;3.10;1.35;;;;;;;10.40;76.30;96635.19;6158152;23;20024;-78
2022/09/18 05:03:26;;;;;;;2.92;1.27;;;;;;;10.39;76.27;96632.78;6159796;23;20026;-77
2022/09/18 05:05:55;;;;;;;1.38;1.17;;;;;;;10.41;76.30;96641.25;6158734;23;20021;-78
2022/09/18 05:08:23;;;;;;;3.00;1.38;;;;;;;10.42;76.06;96642.84;6159010;23;20109;-78
2022/09/18 05:10:50;;;;;;;4.53;1.83;;;;;;;10.45;76.87;96639.88;6158518;23;20136;-77
2022/09/18 05:13:18;;;;;;;2.40;1.20;;;;;;;10.45;76.46;96642.47;6159444;23;20028;-77
2022/09/18 05:15:45;;;;;;;2.45;1.70;;;;;;;10.46;76.11;96641.50;6159219;23;20028;-77
2022/09/18 05:18:14;;;;;;;1.23;1.15;;;;;;;10.45;76.63;96640.69;6159895;23;20026;-77
2022/09/18 05:20:42;;;;;;;1.98;1.30;;;;;;;10.45;76.58;96647.69;6158294;23;20096;-77
2022/09/18 05:23:09;;;;;;;4.07;1.38;;;;;;;10.44;76.29;96646.09;6160771;23;20021;-76
2022/09/18 05:25:37;;;;;;;1.95;1.30;;;;;;;10.43;76.45;96647.06;6160339;23;20032;-81
2022/09/18 05:28:05;;;;;;;2.95;1.20;;;;;;;10.41;76.16;96647.25;6161971;23;20049;-79
2022/09/18 05:30:32;;;;;;;4.15;0.98;;;;;;;10.42;76.16;96653.28;6160352;23;20478;-77
2022/09/18 05:43:45;;;;;;;2.03;1.40;;;;;;;10.46;76.20;96651.94;6157299;23;20048;-80
2022/09/18 05:46:13;;;;;;;3.05;1.65;;;;;;;10.47;76.47;96645.72;6156867;23;20064;-80
2022/09/18 05:48:42;;;;;;;5.15;1.50;;;;;;;10.47;76.42;96658.75;6157306;23;20028;-81
2022/09/18 05:57:51;;;;;;;1.75;1.33;;;;;;;10.42;77.98;96648.06;6159179;23;20156;-75
2022/09/18 06:00:20;;;;;;;1.52;1.00;;;;;;;10.43;77.87;96658.31;6163858;23;20136;-80
2022/09/18 06:02:55;;;;;;;5.40;1.70;;;;;;;10.45;77.40;96658.94;6154977;23;20044;-79
2022/09/18 06:05:23;;;;;;;2.17;1.30;;;;;;;10.45;76.83;96660.72;6155227;23;20018;-78
2022/09/18 06:07:51;;;;;;;2.13;1.08;;;;;;;10.42;76.57;96655.88;6155241;23;20044;-79
2022/09/18 06:10:23;;;;;;;2.42;1.67;;;;;;;10.40;76.95;96663.88;6154113;23;20076;-79
2022/09/18 06:12:50;;;;;;;1.95;1.75;;;;;;;10.39;77.00;96659.66;6154320;23;20018;-80
2022/09/18 06:15:18;;;;;;;2.38;1.75;;;;;;;10.38;77.00;96665.84;6154759;23;20104;-76
2022/09/18 06:17:52;;;;;;;1.42;1.33;;;;;;;10.34;76.72;96663.78;6154253;23;20096;-76
2022/09/18 06:20:19;;;;;;;1.75;1.15;;;;;;;10.30;77.02;96660.75;6153664;23;20029;-77
2022/09/18 06:22:47;;;;;;;1.63;1.05;;;;;;;10.24;76.95;96662.22;6154668;23;20021;-78
2022/09/18 06:25:18;;;;;;;2.50;1.20;;;;;;;10.22;77.25;96664.19;6156796;23;20079;-78
2022/09/18 06:27:45;;;;;;;1.20;1.08;;;;;;;10.18;77.24;96670.75;6155514;23;20469;-79
2022/09/18 06:30:13;;;;;;;1.27;1.10;;;;;;;10.16;77.64;96675.31;6153794;23;20389;-76
2022/09/18 06:33:17;;;;;;;1.88;1.75;;;;;;;10.16;78.46;96674.50;6156186;23;20017;-81
2022/09/18 06:35:48;;;;;;;1.48;1.23;;;;;;;10.15;78.09;96673.72;6155277;23;20021;-79
2022/09/18 06:38:25;;;;;;;4.35;1.50;;;;;;;10.13;78.64;96674.88;6163836;23;20021;-81
2022/09/18 06:40:53;;;;;;;2.55;1.10;;;;;;;10.13;77.99;96685.31;6157470;23;20018;-79
2022/09/18 06:43:21;;;;;;;1.00;1.00;;;;;;;10.11;78.30;96673.25;6154402;23;20025;-79
2022/09/18 06:45:53;;;;;;;1.10;0.90;;;;;;;10.10;78.17;96671.63;6159504;23;20033;-80
2022/09/18 07:11:55;;;;;;;2.63;1.00;;;;;;;10.05;79.46;96667.94;6185424;23;20253;-81
2022/09/18 07:17:16;;;;;;;0.95;0.95;;;;;;;10.09;78.86;96666.59;6159369;23;20016;-79
2022/09/18 07:20:02;;;;;;;1.23;0.85;;;;;;;10.10;78.45;96665.59;6178510;23;20021;-80
2022/09/18 11:35:21;;;;;;;2.22;1.23;;;;;;;13.80;65.24;96690.97;5102611;28;20373;-88
2022/09/18 11:37:53;;;;;;;2.28;1.30;;;;;;;13.85;65.67;96677.25;5101669;28;20506;-84
2022/09/18 11:40:25;;;;;;;1.50;0.98;;;;;;;14.02;65.13;96682.91;5102534;28;20044;-89
2022/09/18 11:43:04;;;;;;;5.57;1.13;;;;;;;14.28;63.21;96684.72;5098646;28;20053;-83
2022/09/18 11:45:46;;;;;;;5.07;1.48;;;;;;;14.72;63.19;96662.28;5080990;28;20062;-83
2022/09/18 11:48:24;;;;;;;2.47;0.70;;;;;;;15.48;60.18;96670.44;5078555;28;20063;-86
2022/09/18 11:51:00;;;;;;;4.53;0.98;;;;;;;15.64;59.21;96665.50;5077174;28;20049;-84
2022/09/18 11:53:32;;;;;;;3.22;1.50;;;;;;;15.55;58.70;96658.88;5076873;28;20053;-82
2022/09/18 11:56:08;;;;;;;3.85;1.13;;;;;;;15.32;59.73;96655.97;5076955;28;20119;-82
2022/09/18 11:58:42;;;;;;;4.68;0.90;;;;;;;15.10;60.40;96653.66;5077134;28;20688;-86
2022/09/18 12:01:18;;;;;;;2.88;1.02;;;;;;;15.08;61.13;96660.94;5079196;28;20052;-85
2022/09/18 12:03:51;;;;;;;2.97;1.02;;;;;;;15.73;60.90;96658.19;5070614;28;20060;-87
2022/09/18 12:06:27;;;;;;;5.45;1.30;;;;;;;16.33;57.66;96657.69;5083005;28;20069;-89
2022/09/18 12:09:01;;;;;;;3.25;1.10;;;;;;;16.51;56.95;96658.75;5076538;28;20112;-91
2022/09/18 12:11:42;;;;;;;1.92;0.73;;;;;;;16.23;57.21;96652.16;5090669;28;20043;-88
2022/09/18 12:14:17;;;;;;;1.83;0.65;;;;;;;15.90;56.50;96653.22;5079156;28;20040;-88
2022/09/18 12:16:54;;;;;;;1.95;0.77;;;;;;;15.81;57.97;96638.72;5079615;28;20049;-83
2022/09/18 12:19:26;;;;;;;2.72;0.90;;;;;;;15.88;57.42;96644.72;5079847;28;20045;-81
2022/09/18 12:22:00;;;;;;;2.35;0.82;;;;;;;15.95;56.53;96644.69;5077884;28;20052;-86
2022/09/18 12:24:29;;;;;;;2.20;0.50;;;;;;;15.96;56.36;96631.31;5079984;28;20055;-89
2022/09/18 12:27:07;;;;;;;1.35;0.70;;;;;;;15.96;55.90;96631.31;5072754;28;20051;-87
2022/09/18 12:29:45;;;;;;;2.20;0.45;;;;;;;15.98;55.26;96613.50;5079404;28;20044;-84
2022/09/18 12:32:28;;;;;;;2.50;0.70;;;;;;;15.88;55.03;96610.53;5078283;28;20053;-80
2022/09/18 12:35:02;;;;;;;2.50;0.70;;;;;;;15.73;56.19;96624.00;5077740;28;20040;-81
2022/09/18 12:37:47;;;;;;;0.82;0.73;;;;;;;15.58;57.09;96603.22;5079394;28;20091;-84
2022/09/18 12:40:47;;;;;;;3.10;0.73;;;;;;;15.45;55.72;96614.63;5078479;28;20478;-79
2022/09/18 12:43:39;;;;;;;2.53;1.23;;;;;;;15.34;55.01;96617.94;5064884;28;20052;-89
2022/09/18 12:46:34;;;;;;;1.88;0.60;;;;;;;15.27;55.92;96611.13;5069147;28;20056;-84
2022/09/18 12:49:20;;;;;;;4.65;0.60;;;;;;;15.19;55.22;96599.84;5065883;28;20526;-82
2022/09/18 12:51:52;;;;;;;1.30;0.73;;;;;;;15.15;55.44;96596.03;5066050;28;20077;-84
2022/09/18 12:54:35;;;;;;;0.57;0.50;;;;;;;15.10;56.58;96595.84;5065893;28;20407;-82
2022/09/18 12:57:20;;;;;;;2.10;0.63;;;;;;;15.05;55.28;96587.81;5066110;28;20135;-82
2022/09/18 12:59:59;;;;;;;3.72;0.60;;;;;;;15.02;57.65;96582.94;5066590;28;20049;-82
2022/09/18 13:02:38;;;;;;;2.33;0.85;;;;;;;14.98;56.29;96587.84;5066337;28;20083;-81
2022/09/18 13:05:13;;;;;;;6.20;0.98;;;;;;;14.94;56.25;96585.84;5066001;28;20049;-79
2022/09/18 13:07:45;;;;;;;0.77;0.50;;;;;;;14.87;57.47;96578.00;5064924;28;20079;-83
2022/09/18 13:10:21;;;;;;;2.95;0.82;;;;;;;14.83;57.13;96585.47;5064713;28;20056;-85
2022/09/18 13:12:55;;;;;;;2.35;0.50;;;;;;;14.81;58.17;96586.69;5063896;28;20087;-82
2022/09/18 13:15:29;;;;;;;1.02;0.70;;;;;;;14.78;59.64;96587.94;5061856;28;20048;-82
2022/09/18 13:18:09;;;;;;;1.38;0.50;;;;;;;14.75;59.85;96584.91;5064756;28;20400;-78
2022/09/18 13:20:42;;;;;;;2.38;1.25;;;;;;;14.71;58.48;96587.13;5063674;28;20426;-81
2022/09/18 13:23:17;;;;;;;2.38;0.60;;;;;;;14.67;60.11;96583.34;5064106;28;20417;-81
2022/09/18 13:25:50;;;;;;;1.65;0.40;;;;;;;14.62;58.27;96570.00;5049680;28;20045;-83
2022/09/18 13:28:21;;;;;;;0.75;0.47;;;;;;;14.57;57.64;96575.88;5062675;28;20049;-85
2022/09/18 13:31:15;;;;;;;0.47;0.40;;;;;;;14.52;59.16;96580.09;5053689;28;20049;-82
2022/09/18 13:33:49;;;;;;;1.45;0.50;;;;;;;14.48;59.60;96569.22;5043549;28;20556;-82
2022/09/18 13:36:24;;;;;;;2.92;0.82;;;;;;;14.46;60.46;96573.06;5060241;28;20714;-80
2022/09/18 13:38:53;;;;;;;2.28;0.90;;;;;;;14.42;59.01;96570.84;5043870;28;20053;-88
2022/09/18 13:41:23;;;;;;;2.97;0.88;;;;;;;14.36;59.72;96570.84;5060999;28;20077;-82
2022/09/18 13:43:57;;;;;;;2.78;0.90;;;;;;;14.29;58.20;96563.00;5061203;28;20057;-80
2022/09/18 13:46:38;;;;;;;1.65;1.00;;;;;;;14.20;58.27;96575.53;5062474;28;20052;-78
2022/09/18 13:49:18;;;;;;;2.97;1.00;;;;;;;14.15;59.70;96577.97;5068753;28;20076;-86
2022/09/18 13:51:46;;;;;;;2.97;1.15;;;;;;;14.10;58.77;96567.31;5063254;28;20064;-86
2022/09/18 13:54:23;;;;;;;2.50;1.15;;;;;;;14.07;59.94;96564.28;5068784;28;20064;-88
2022/09/18 13:57:28;;;;;;;2.40;0.80;;;;;;;14.05;60.67;96548.72;5067844;28;20076;-89
2022/09/18 13:59:59;;;;;;;2.55;1.20;;;;;;;14.02;59.55;96557.03;5069452;28;20072;-89
2022/09/18 14:02:36;;;;;;;3.17;0.85;;;;;;;14.01;61.04;96558.84;5070063;28;20045;-87
2022/09/18 14:05:29;;;;;;;3.45;1.33;;;;;;;13.98;58.56;96555.81;5068350;28;20056;-88
2022/09/18 14:08:18;;;;;;;5.00;1.23;;;;;;;13.97;59.83;96559.44;5061009;28;20075;-89
2022/09/18 14:11:07;;;;;;;1.50;0.80;;;;;;;13.96;59.92;96555.22;5067095;28;20499;-90
2022/09/18 14:13:50;;;;;;;5.68;0.95;;;;;;;13.94;60.72;96546.75;5055716;28;20052;-84
2022/09/18 14:16:30;;;;;;;2.45;0.93;;;;;;;13.94;60.74;96557.22;5067719;28;20479;-85
2022/09/18 14:19:03;;;;;;;1.42;0.80;;;;;;;13.94;60.23;96549.38;5066109;28;20049;-85
2022/09/18 14:21:32;;;;;;;2.33;0.82;;;;;;;13.92;60.32;96552.19;5064977;28;20136;-84
2022/09/18 14:24:22;;;;;;;4.07;1.10;;;;;;;13.89;59.68;96544.72;5067195;28;20049;-82
2022/09/18 14:27:21;;;;;;;2.10;0.70;;;;;;;13.87;60.27;96544.13;5066473;28;20572;-89
2022/09/18 14:29:55;;;;;;;1.00;0.70;;;;;;;13.81;58.48;96550.97;5060174;28;20040;-85
2022/09/18 14:32:25;;;;;;;2.28;1.02;;;;;;;13.80;59.36;96551.19;5065181;28;20052;-85
2022/09/18 14:35:17;;;;;;;1.67;0.90;;;;;;;13.78;61.15;96546.16;5067621;28;20045;-84
2022/09/18 14:37:45;;;;;;;3.15;0.70;;;;;;;13.75;59.54;96543.13;5069538;28;20045;-88
2022/09/18 14:40:19;;;;;;;2.22;0.90;;;;;;;13.71;59.38;96545.34;5068039;28;20100;-85
2022/09/18 14:42:48;;;;;;;2.00;0.70;;;;;;;13.68;59.38;96537.88;5067662;28;20063;-90
2022/09/18 14:45:28;;;;;;;1.15;0.73;;;;;;;13.64;59.09;96541.13;5064838;28;20053;-87
2022/09/18 14:47:57;;;;;;;4.63;0.70;;;;;;;13.57;59.25;96539.28;5065736;28;20116;-90
2022/09/18 14:50:31;;;;;;;3.90;0.90;;;;;;;13.56;59.94;96535.06;5064651;28;20049;-82
2022/09/18 14:53:19;;;;;;;0.65;0.50;;;;;;;13.53;59.12;96538.09;5064892;28;20408;-85
2022/09/18 14:55:51;;;;;;;1.30;0.55;;;;;;;13.50;58.51;96535.88;5064400;28;20499;-86
2022/09/18 14:58:21;;;;;;;2.47;0.82;;;;;;;13.47;58.78;96538.91;5061863;28;20080;-83
2022/09/18 15:00:54;;;;;;;1.00;0.60;;;;;;;13.46;57.48;96534.66;5062046;28;20060;-85
2022/09/18 15:03:28;;;;;;;5.47;0.88;;;;;;;13.41;56.85;96539.72;5061431;28;20044;-86
2022/09/18 15:06:05;;;;;;;2.60;0.90;;;;;;;13.39;56.80;96528.63;5061442;28;20045;-87
2022/09/18 15:08:34;;;;;;;1.05;0.70;;;;;;;13.39;57.13;96526.81;5060240;28;20143;-86
2022/09/18 15:11:01;;;;;;;1.25;0.50;;;;;;;13.38;58.38;96527.81;5059792;28;20055;-84
2022/09/18 15:13:36;;;;;;;1.65;1.02;;;;;;;13.38;57.12;96529.59;5064013;28;20049;-89
2022/09/18 15:16:06;;;;;;;4.28;0.90;;;;;;;13.37;56.31;96517.53;5060888;28;20045;-84
2022/09/18 15:18:41;;;;;;;6.55;1.35;;;;;;;13.36;56.29;96511.50;5059921;28;20049;-87
2022/09/18 15:21:20;;;;;;;1.10;0.70;;;;;;;13.37;56.37;96514.91;5059573;28;20044;-91
2022/09/18 15:23:48;;;;;;;5.40;1.23;;;;;;;13.37;57.15;96507.84;5061435;28;20044;-89
2022/09/18 15:26:18;;;;;;;1.85;0.82;;;;;;;13.39;58.53;96516.31;5061522;28;20108;-88
2022/09/18 15:28:48;;;;;;;0.90;0.70;;;;;;;13.42;59.34;96516.94;5060262;28;20087;-85
2022/09/18 15:31:23;;;;;;;1.13;0.63;;;;;;;13.42;57.92;96514.31;5059006;28;20136;-83
2022/09/18 15:33:56;;;;;;;1.67;0.80;;;;;;;13.41;58.59;96518.75;5059306;28;20461;-86
2022/09/18 15:36:27;;;;;;;1.83;0.85;;;;;;;13.41;60.54;96510.88;5059131;28;20529;-83
2022/09/18 15:38:56;;;;;;;2.65;0.85;;;;;;;13.40;58.03;96517.13;5058752;28;20049;-85
2022/09/18 15:41:36;;;;;;;2.95;1.30;;;;;;;13.42;60.11;96514.31;5059208;28;20072;-85
2022/09/18 15:44:05;;;;;;;2.50;1.38;;;;;;;13.40;58.18;96504.03;5059584;28;20044;-82
2022/09/18 15:46:36;;;;;;;1.55;1.00;;;;;;;13.37;57.20;96504.44;5059002;28;20041;-88
2022/09/18 15:49:28;;;;;;;3.30;1.10;;;;;;;13.36;57.01;96515.94;5057757;28;20059;-83
2022/09/18 15:51:56;;;;;;;2.70;0.93;;;;;;;13.34;58.07;96507.47;5057753;28;20037;-83
2022/09/18 15:54:26;;;;;;;1.38;0.90;;;;;;;13.31;57.64;96513.88;5058734;28;20045;-84
2022/09/18 15:56:56;;;;;;;2.58;1.33;;;;;;;13.30;58.20;96512.28;5057046;28;20415;-82
2022/09/18 15:59:30;;;;;;;1.27;0.73;;;;;;;13.28;57.63;96508.22;5056506;28;20059;-87
2022/09/18 16:02:03;;;;;;;2.63;1.08;;;;;;;13.24;56.95;96502.56;5056293;28;20052;-88
2022/09/18 16:04:32;;;;;;;1.90;0.95;;;;;;;13.20;57.19;96499.53;5057805;28;20574;-81
2022/09/18 16:07:04;;;;;;;1.30;0.88;;;;;;;13.18;57.17;96498.13;5058714;28;20040;-86
2022/09/18 16:09:37;;;;;;;2.60;1.30;;;;;;;13.17;57.50;96497.34;5057703;28;20056;-85
2022/09/18 16:12:26;;;;;;;1.63;0.90;;;;;;;13.17;57.56;96484.25;5056936;28;20059;-78
2022/09/18 16:15:11;;;;;;;6.38;1.23;;;;;;;13.17;60.43;96497.34;5057392;28;20053;-77
2022/09/18 16:18:23;;;;;;;1.13;0.90;;;;;;;13.16;57.56;96500.97;5051801;28;20049;-83
2022/09/18 16:21:03;;;;;;;2.78;1.15;;;;;;;13.14;59.01;96491.69;5057628;28;20053;-83
2022/09/18 16:23:33;;;;;;;2.50;1.27;;;;;;;13.11;58.53;96486.84;5065556;28;20159;-86
2022/09/18 16:26:07;;;;;;;1.27;0.95;;;;;;;13.12;61.32;96486.66;5064093;28;21001;-84
2022/09/18 16:28:39;;;;;;;2.90;1.00;;;;;;;13.11;57.94;96482.41;5067649;28;20068;-82
2022/09/18 16:31:07;;;;;;;2.55;1.30;;;;;;;13.08;58.69;96474.97;5068533;28;20049;-88
2022/09/18 16:33:54;;;;;;;2.22;0.90;;;;;;;13.06;58.07;96471.75;5065499;28;20041;-87
2022/09/18 16:36:30;;;;;;;4.05;1.45;;;;;;;13.03;57.10;96474.78;5062887;28;20057;-87
2022/09/18 16:39:06;;;;;;;1.40;0.90;;;;;;;13.01;57.57;96476.78;5065465;28;20095;-86
2022/09/18 16:41:35;;;;;;;4.22;1.33;;;;;;;13.01;58.17;96476.78;5065407;28;20095;-83
2022/09/18 16:44:04;;;;;;;1.90;0.80;;;;;;;12.97;58.38;96479.00;5053834;28;20109;-86
2022/09/18 16:46:37;;;;;;;1.45;0.80;;;;;;;12.99;62.22;96479.59;5062358;28;20109;-85
2022/09/18 16:49:07;;;;;;;2.97;0.88;;;;;;;13.01;59.51;96484.66;5062308;28;20072;-81
2022/09/18 16:51:36;;;;;;;3.10;1.13;;;;;;;13.01;60.61;96474.16;5063843;28;20048;-87
2022/09/18 16:54:04;;;;;;;1.17;0.77;;;;;;;13.00;61.03;96477.78;5065654;28;20049;-88
2022/09/18 16:56:35;;;;;;;3.50;0.88;;;;;;;12.96;59.02;96476.56;5064616;28;20139;-83
2022/09/18 16:59:06;;;;;;;2.63;1.00;;;;;;;12.90;60.00;96470.31;5065731;28;20171;-87